sensor_id;sensor_type;location;lat;lon;timestamp;P1;P2;P0
74419;PMS5003;62855;50.718;-2.460;2023-06-01T00:01:05;10.89;11.73;
74419;PMS5003;62855;50.718;-2.460;2023-06-01T00:04:05;9.08;9.78;
74419;PMS5003;62855;50.718;-2.460;2023-06-01T00:07:06;9.98;9.78;
74419;PMS5003;62855;50.718;-2.460;2023-06-01T00:10:06;9.08;8.80;
74419;PMS5003;62855;50.718;-2.460;2023-06-01T00:13:06;9.98;9.78;
74419;PMS5003;62855;50.718;-2.460;2023-06-01T00:16:06;9.98;9.78;
74419;PMS5003;62855;50.718;-2.460;2023-06-01T00:19:06;9.98;9.78;
74419;PMS5003;62855;50.718;-2.460;2023-06-01T00:22:06;9.98;9.78;
74419;PMS5003;62855;50.718;-2.460;2023-06-01T00:25:07;9.08;8.80;
74419;PMS5003;62855;50.718;-2.460;2023-06-01T00:28:06;9.08;8.80;
74419;PMS5003;62855;50.718;-2.460;2023-06-01T00:31:06;8.17;7.82;
74419;PMS5003;62855;50.718;-2.460;2023-06-01T00:34:06;8.17;7.82;
74419;PMS5003;62855;50.718;-2.460;2023-06-01T00:37:06;8.17;8.80;
74419;PMS5003;62855;50.718;-2.460;2023-06-01T00:40:06;8.17;8.80;
74419;PMS5003;62855;50.718;-2.460;2023-06-01T00:43:06;7.26;7.82;
74419;PMS5003;62855;50.718;-2.460;2023-06-01T00:46:06;8.17;8.80;
74419;PMS5003;62855;50.718;-2.460;2023-06-01T00:49:06;8.17;8.80;
74419;PMS5003;62855;50.718;-2.460;2023-06-01T00:52:06;8.17;8.80;
74419;PMS5003;62855;50.718;-2.460;2023-06-01T00:55:06;9.08;9.78;
74419;PMS5003;62855;50.718;-2.460;2023-06-01T00:58:10;9.08;9.78;
74419;PMS5003;62855;50.718;-2.460;2023-06-01T01:01:06;9.08;9.78;
74419;PMS5003;62855;50.718;-2.460;2023-06-01T01:04:05;9.08;9.78;
74419;PMS5003;62855;50.718;-2.460;2023-06-01T01:07:11;8.17;8.80;
74419;PMS5003;62855;50.718;-2.460;2023-06-01T01:10:07;8.17;8.80;
74419;PMS5003;62855;50.718;-2.460;2023-06-01T01:13:06;9.08;9.78;
74419;PMS5003;62855;50.718;-2.460;2023-06-01T01:16:07;8.17;8.80;
74419;PMS5003;62855;50.718;-2.460;2023-06-01T01:19:08;8.17;8.80;
74419;PMS5003;62855;50.718;-2.460;2023-06-01T01:22:07;7.26;7.82;
74419;PMS5003;62855;50.718;-2.460;2023-06-01T01:28:08;6.35;6.84;
74419;PMS5003;62855;50.718;-2.460;2023-06-01T01:31:06;7.26;7.82;
74419;PMS5003;62855;50.718;-2.460;2023-06-01T01:34:07;7.26;7.82;
74419;PMS5003;62855;50.718;-2.460;2023-06-01T01:37:06;7.26;6.84;
74419;PMS5003;62855;50.718;-2.460;2023-06-01T01:40:06;7.26;7.82;
74419;PMS5003;62855;50.718;-2.460;2023-06-01T01:43:06;7.26;6.84;
74419;PMS5003;62855;50.718;-2.460;2023-06-01T01:46:08;7.26;6.84;
74419;PMS5003;62855;50.718;-2.460;2023-06-01T01:49:08;7.26;6.84;
74419;PMS5003;62855;50.718;-2.460;2023-06-01T01:52:07;7.26;7.82;
74419;PMS5003;62855;50.718;-2.460;2023-06-01T01:55:06;8.17;7.82;
74419;PMS5003;62855;50.718;-2.460;2023-06-01T01:58:05;8.17;8.80;
74419;PMS5003;62855;50.718;-2.460;2023-06-01T02:01:06;7.26;7.82;
74419;PMS5003;62855;50.718;-2.460;2023-06-01T02:04:06;8.17;7.82;
74419;PMS5003;62855;50.718;-2.460;2023-06-01T02:07:06;8.17;7.82;
74419;PMS5003;62855;50.718;-2.460;2023-06-01T02:10:06;7.26;7.82;
74419;PMS5003;62855;50.718;-2.460;2023-06-01T02:13:06;8.17;7.82;
74419;PMS5003;62855;50.718;-2.460;2023-06-01T02:16:06;8.17;7.82;
74419;PMS5003;62855;50.718;-2.460;2023-06-01T02:19:05;8.17;7.82;
74419;PMS5003;62855;50.718;-2.460;2023-06-01T02:22:06;8.17;7.82;
74419;PMS5003;62855;50.718;-2.460;2023-06-01T02:25:06;7.26;6.84;
74419;PMS5003;62855;50.718;-2.460;2023-06-01T02:28:06;7.26;6.84;
74419;PMS5003;62855;50.718;-2.460;2023-06-01T02:31:06;6.35;6.84;
74419;PMS5003;62855;50.718;-2.460;2023-06-01T02:34:06;6.35;6.84;
74419;PMS5003;62855;50.718;-2.460;2023-06-01T02:37:06;6.35;6.84;
74419;PMS5003;62855;50.718;-2.460;2023-06-01T02:40:06;6.35;6.84;
74419;PMS5003;62855;50.718;-2.460;2023-06-01T02:43:06;6.35;6.84;
74419;PMS5003;62855;50.718;-2.460;2023-06-01T02:46:06;6.35;6.84;
74419;PMS5003;62855;50.718;-2.460;2023-06-01T02:49:05;5.45;5.87;
74419;PMS5003;62855;50.718;-2.460;2023-06-01T02:52:06;6.35;6.84;
74419;PMS5003;62855;50.718;-2.460;2023-06-01T02:55:06;7.26;7.82;
74419;PMS5003;62855;50.718;-2.460;2023-06-01T02:58:05;7.26;7.82;
74419;PMS5003;62855;50.718;-2.460;2023-06-01T03:01:06;8.17;8.80;
74419;PMS5003;62855;50.718;-2.460;2023-06-01T03:04:06;7.26;7.82;
74419;PMS5003;62855;50.718;-2.460;2023-06-01T03:07:06;8.17;8.80;
74419;PMS5003;62855;50.718;-2.460;2023-06-01T03:10:06;8.17;8.80;
74419;PMS5003;62855;50.718;-2.460;2023-06-01T03:13:06;7.26;7.82;
74419;PMS5003;62855;50.718;-2.460;2023-06-01T03:16:06;6.35;6.84;
74419;PMS5003;62855;50.718;-2.460;2023-06-01T03:19:05;7.26;7.82;
74419;PMS5003;62855;50.718;-2.460;2023-06-01T03:22:06;7.26;7.82;
74419;PMS5003;62855;50.718;-2.460;2023-06-01T03:25:06;5.45;5.87;
74419;PMS5003;62855;50.718;-2.460;2023-06-01T03:28:06;6.35;6.84;
74419;PMS5003;62855;50.718;-2.460;2023-06-01T03:31:06;5.45;5.87;
74419;PMS5003;62855;50.718;-2.460;2023-06-01T03:34:06;5.45;5.87;
74419;PMS5003;62855;50.718;-2.460;2023-06-01T03:37:06;5.45;5.87;
74419;PMS5003;62855;50.718;-2.460;2023-06-01T03:40:07;4.54;4.89;
74419;PMS5003;62855;50.718;-2.460;2023-06-01T03:43:06;5.45;5.87;
74419;PMS5003;62855;50.718;-2.460;2023-06-01T03:46:06;6.35;6.84;
74419;PMS5003;62855;50.718;-2.460;2023-06-01T03:49:06;5.45;5.87;
74419;PMS5003;62855;50.718;-2.460;2023-06-01T03:52:06;6.35;6.84;
74419;PMS5003;62855;50.718;-2.460;2023-06-01T03:55:06;7.26;7.82;
74419;PMS5003;62855;50.718;-2.460;2023-06-01T03:58:06;7.26;7.82;
74419;PMS5003;62855;50.718;-2.460;2023-06-01T04:01:06;7.26;6.84;
74419;PMS5003;62855;50.718;-2.460;2023-06-01T04:04:05;8.17;8.80;
74419;PMS5003;62855;50.718;-2.460;2023-06-01T04:07:06;9.08;8.80;
74419;PMS5003;62855;50.718;-2.460;2023-06-01T04:10:06;8.17;7.82;
74419;PMS5003;62855;50.718;-2.460;2023-06-01T04:13:05;8.17;8.80;
74419;PMS5003;62855;50.718;-2.460;2023-06-01T04:16:06;8.17;8.80;
74419;PMS5003;62855;50.718;-2.460;2023-06-01T04:19:06;8.17;7.82;
74419;PMS5003;62855;50.718;-2.460;2023-06-01T04:22:05;7.26;7.82;
74419;PMS5003;62855;50.718;-2.460;2023-06-01T04:25:07;8.17;8.80;
74419;PMS5003;62855;50.718;-2.460;2023-06-01T04:28:06;9.08;9.78;
74419;PMS5003;62855;50.718;-2.460;2023-06-01T04:31:05;9.08;9.78;
74419;PMS5003;62855;50.718;-2.460;2023-06-01T04:34:06;8.17;8.80;
74419;PMS5003;62855;50.718;-2.460;2023-06-01T04:37:06;9.08;8.80;
74419;PMS5003;62855;50.718;-2.460;2023-06-01T04:40:07;9.08;8.80;
74419;PMS5003;62855;50.718;-2.460;2023-06-01T04:43:06;9.08;8.80;
74419;PMS5003;62855;50.718;-2.460;2023-06-01T04:46:05;9.08;8.80;
74419;PMS5003;62855;50.718;-2.460;2023-06-01T04:49:06;9.08;8.80;
74419;PMS5003;62855;50.718;-2.460;2023-06-01T04:52:06;9.08;9.78;
74419;PMS5003;62855;50.718;-2.460;2023-06-01T04:55:07;10.89;9.78;
74419;PMS5003;62855;50.718;-2.460;2023-06-01T04:58:05;10.89;9.78;
74419;PMS5003;62855;50.718;-2.460;2023-06-01T05:01:06;10.89;9.78;
74419;PMS5003;62855;50.718;-2.460;2023-06-01T05:04:06;11.80;9.78;
74419;PMS5003;62855;50.718;-2.460;2023-06-01T05:07:05;9.08;8.80;
74419;PMS5003;62855;50.718;-2.460;2023-06-01T05:10:06;9.08;8.80;
74419;PMS5003;62855;50.718;-2.460;2023-06-01T05:13:06;9.98;9.78;
74419;PMS5003;62855;50.718;-2.460;2023-06-01T05:16:06;9.98;9.78;
74419;PMS5003;62855;50.718;-2.460;2023-06-01T05:19:05;9.08;8.80;
74419;PMS5003;62855;50.718;-2.460;2023-06-01T05:22:06;9.08;8.80;
74419;PMS5003;62855;50.718;-2.460;2023-06-01T05:25:07;8.17;7.82;
74419;PMS5003;62855;50.718;-2.460;2023-06-01T05:28:06;7.26;7.82;
74419;PMS5003;62855;50.718;-2.460;2023-06-01T05:31:06;6.35;6.84;
74419;PMS5003;62855;50.718;-2.460;2023-06-01T05:34:06;7.26;7.82;
74419;PMS5003;62855;50.718;-2.460;2023-06-01T05:37:06;8.17;8.80;
74419;PMS5003;62855;50.718;-2.460;2023-06-01T05:40:07;8.17;8.80;
74419;PMS5003;62855;50.718;-2.460;2023-06-01T05:43:06;8.17;8.80;
74419;PMS5003;62855;50.718;-2.460;2023-06-01T05:46:06;8.17;8.80;
74419;PMS5003;62855;50.718;-2.460;2023-06-01T05:49:06;8.17;8.80;
74419;PMS5003;62855;50.718;-2.460;2023-06-01T05:52:06;9.08;9.78;
74419;PMS5003;62855;50.718;-2.460;2023-06-01T05:55:06;9.08;9.78;
74419;PMS5003;62855;50.718;-2.460;2023-06-01T05:58:06;9.08;9.78;
74419;PMS5003;62855;50.718;-2.460;2023-06-01T06:01:06;9.08;9.78;
74419;PMS5003;62855;50.718;-2.460;2023-06-01T06:04:06;9.98;10.76;
74419;PMS5003;62855;50.718;-2.460;2023-06-01T06:07:06;9.08;9.78;
74419;PMS5003;62855;50.718;-2.460;2023-06-01T06:10:06;8.17;8.80;
74419;PMS5003;62855;50.718;-2.460;2023-06-01T06:13:06;8.17;8.80;
74419;PMS5003;62855;50.718;-2.460;2023-06-01T06:16:06;8.17;8.80;
74419;PMS5003;62855;50.718;-2.460;2023-06-01T06:19:06;8.17;8.80;
74419;PMS5003;62855;50.718;-2.460;2023-06-01T06:22:06;9.08;9.78;
74419;PMS5003;62855;50.718;-2.460;2023-06-01T06:25:06;9.08;9.78;
74419;PMS5003;62855;50.718;-2.460;2023-06-01T06:28:05;8.17;8.80;
74419;PMS5003;62855;50.718;-2.460;2023-06-01T06:31:06;7.26;7.82;
74419;PMS5003;62855;50.718;-2.460;2023-06-01T06:34:06;6.35;6.84;
74419;PMS5003;62855;50.718;-2.460;2023-06-01T06:37:06;6.35;6.84;
74419;PMS5003;62855;50.718;-2.460;2023-06-01T06:40:06;7.26;7.82;
74419;PMS5003;62855;50.718;-2.460;2023-06-01T06:43:06;8.17;8.80;
74419;PMS5003;62855;50.718;-2.460;2023-06-01T06:46:07;7.26;7.82;
74419;PMS5003;62855;50.718;-2.460;2023-06-01T06:49:06;6.35;6.84;
74419;PMS5003;62855;50.718;-2.460;2023-06-01T06:52:06;7.26;7.82;
74419;PMS5003;62855;50.718;-2.460;2023-06-01T06:55:06;6.35;6.84;
74419;PMS5003;62855;50.718;-2.460;2023-06-01T06:58:06;7.26;7.82;
74419;PMS5003;62855;50.718;-2.460;2023-06-01T07:01:06;6.35;6.84;
74419;PMS5003;62855;50.718;-2.460;2023-06-01T07:04:06;7.26;7.82;
74419;PMS5003;62855;50.718;-2.460;2023-06-01T07:07:06;8.17;8.80;
74419;PMS5003;62855;50.718;-2.460;2023-06-01T07:10:07;7.26;7.82;
74419;PMS5003;62855;50.718;-2.460;2023-06-01T07:13:06;7.26;7.82;
74419;PMS5003;62855;50.718;-2.460;2023-06-01T07:16:06;7.26;7.82;
74419;PMS5003;62855;50.718;-2.460;2023-06-01T07:19:06;7.26;7.82;
74419;PMS5003;62855;50.718;-2.460;2023-06-01T07:22:06;7.26;7.82;
74419;PMS5003;62855;50.718;-2.460;2023-06-01T07:25:06;7.26;7.82;
74419;PMS5003;62855;50.718;-2.460;2023-06-01T07:28:06;8.17;8.80;
74419;PMS5003;62855;50.718;-2.460;2023-06-01T07:31:05;9.98;9.78;
74419;PMS5003;62855;50.718;-2.460;2023-06-01T07:34:06;9.98;9.78;
74419;PMS5003;62855;50.718;-2.460;2023-06-01T07:37:06;9.08;8.80;
74419;PMS5003;62855;50.718;-2.460;2023-06-01T07:40:06;9.98;9.78;
74419;PMS5003;62855;50.718;-2.460;2023-06-01T07:43:06;9.08;8.80;
74419;PMS5003;62855;50.718;-2.460;2023-06-01T07:46:06;9.98;9.78;
74419;PMS5003;62855;50.718;-2.460;2023-06-01T07:49:06;9.98;9.78;
74419;PMS5003;62855;50.718;-2.460;2023-06-01T07:52:06;9.98;9.78;
74419;PMS5003;62855;50.718;-2.460;2023-06-01T07:55:07;9.98;9.78;
74419;PMS5003;62855;50.718;-2.460;2023-06-01T07:58:06;9.08;8.80;
74419;PMS5003;62855;50.718;-2.460;2023-06-01T08:01:06;8.17;8.80;
74419;PMS5003;62855;50.718;-2.460;2023-06-01T08:04:06;7.26;7.82;
74419;PMS5003;62855;50.718;-2.460;2023-06-01T08:07:06;8.17;8.80;
74419;PMS5003;62855;50.718;-2.460;2023-06-01T08:10:07;7.26;7.82;
74419;PMS5003;62855;50.718;-2.460;2023-06-01T08:13:06;8.17;8.80;
74419;PMS5003;62855;50.718;-2.460;2023-06-01T08:16:06;7.26;7.82;
74419;PMS5003;62855;50.718;-2.460;2023-06-01T08:19:06;7.26;7.82;
74419;PMS5003;62855;50.718;-2.460;2023-06-01T08:22:06;8.17;8.80;
74419;PMS5003;62855;50.718;-2.460;2023-06-01T08:25:06;8.17;8.80;
74419;PMS5003;62855;50.718;-2.460;2023-06-01T08:28:06;8.17;8.80;
74419;PMS5003;62855;50.718;-2.460;2023-06-01T08:31:06;8.17;8.80;
74419;PMS5003;62855;50.718;-2.460;2023-06-01T08:34:05;8.17;8.80;
74419;PMS5003;62855;50.718;-2.460;2023-06-01T08:37:06;8.17;8.80;
74419;PMS5003;62855;50.718;-2.460;2023-06-01T08:40:06;9.08;9.78;
74419;PMS5003;62855;50.718;-2.460;2023-06-01T08:43:09;9.98;9.78;
74419;PMS5003;62855;50.718;-2.460;2023-06-01T08:46:05;9.98;9.78;
74419;PMS5003;62855;50.718;-2.460;2023-06-01T08:49:06;9.98;10.76;
74419;PMS5003;62855;50.718;-2.460;2023-06-01T08:52:07;9.98;9.78;
74419;PMS5003;62855;50.718;-2.460;2023-06-01T08:55:06;10.89;10.76;
74419;PMS5003;62855;50.718;-2.460;2023-06-01T08:58:06;9.98;9.78;
74419;PMS5003;62855;50.718;-2.460;2023-06-01T09:01:05;9.98;9.78;
74419;PMS5003;62855;50.718;-2.460;2023-06-01T09:04:06;9.98;9.78;
74419;PMS5003;62855;50.718;-2.460;2023-06-01T09:07:06;9.98;10.76;
74419;PMS5003;62855;50.718;-2.460;2023-06-01T09:10:07;8.17;8.80;
74419;PMS5003;62855;50.718;-2.460;2023-06-01T09:13:05;8.17;8.80;
74419;PMS5003;62855;50.718;-2.460;2023-06-01T09:16:06;8.17;8.80;
74419;PMS5003;62855;50.718;-2.460;2023-06-01T09:19:06;8.17;8.80;
74419;PMS5003;62855;50.718;-2.460;2023-06-01T09:22:06;8.17;8.80;
74419;PMS5003;62855;50.718;-2.460;2023-06-01T09:25:06;7.26;7.82;
74419;PMS5003;62855;50.718;-2.460;2023-06-01T09:28:06;7.26;7.82;
74419;PMS5003;62855;50.718;-2.460;2023-06-01T09:31:05;8.17;8.80;
74419;PMS5003;62855;50.718;-2.460;2023-06-01T09:34:06;8.17;8.80;
74419;PMS5003;62855;50.718;-2.460;2023-06-01T09:37:06;7.26;7.82;
74419;PMS5003;62855;50.718;-2.460;2023-06-01T09:46:06;8.17;8.80;
74419;PMS5003;62855;50.718;-2.460;2023-06-01T09:49:06;9.08;9.78;
74419;PMS5003;62855;50.718;-2.460;2023-06-01T09:52:08;9.98;10.76;
74419;PMS5003;62855;50.718;-2.460;2023-06-01T09:55:07;9.98;10.76;
74419;PMS5003;62855;50.718;-2.460;2023-06-01T10:01:06;9.98;10.76;
74419;PMS5003;62855;50.718;-2.460;2023-06-01T10:04:06;10.89;11.73;
74419;PMS5003;62855;50.718;-2.460;2023-06-01T10:07:06;9.98;10.76;
74419;PMS5003;62855;50.718;-2.460;2023-06-01T10:10:06;10.89;11.73;
74419;PMS5003;62855;50.718;-2.460;2023-06-01T10:13:06;9.98;10.76;
74419;PMS5003;62855;50.718;-2.460;2023-06-01T10:16:06;9.98;10.76;
74419;PMS5003;62855;50.718;-2.460;2023-06-01T10:19:06;9.08;9.78;
74419;PMS5003;62855;50.718;-2.460;2023-06-01T10:22:06;8.17;8.80;
74419;PMS5003;62855;50.718;-2.460;2023-06-01T10:25:06;8.17;8.80;
74419;PMS5003;62855;50.718;-2.460;2023-06-01T10:28:06;8.17;7.82;
74419;PMS5003;62855;50.718;-2.460;2023-06-01T10:34:06;9.08;7.82;
74419;PMS5003;62855;50.718;-2.460;2023-06-01T10:37:11;9.08;8.80;
74419;PMS5003;62855;50.718;-2.460;2023-06-01T10:40:11;9.08;7.82;
74419;PMS5003;62855;50.718;-2.460;2023-06-01T10:43:05;9.98;8.80;
74419;PMS5003;62855;50.718;-2.460;2023-06-01T10:49:06;9.98;8.80;
74419;PMS5003;62855;50.718;-2.460;2023-06-01T11:01:06;9.08;8.80;
74419;PMS5003;62855;50.718;-2.460;2023-06-01T11:04:06;9.08;8.80;
74419;PMS5003;62855;50.718;-2.460;2023-06-01T11:10:06;9.98;8.80;
74419;PMS5003;62855;50.718;-2.460;2023-06-01T11:13:11;9.98;9.78;
74419;PMS5003;62855;50.718;-2.460;2023-06-01T11:19:06;10.89;9.78;
74419;PMS5003;62855;50.718;-2.460;2023-06-01T11:22:06;10.89;9.78;
74419;PMS5003;62855;50.718;-2.460;2023-06-01T11:25:06;9.98;8.80;
74419;PMS5003;62855;50.718;-2.460;2023-06-01T11:28:06;10.89;9.78;
74419;PMS5003;62855;50.718;-2.460;2023-06-01T11:31:08;10.89;9.78;
74419;PMS5003;62855;50.718;-2.460;2023-06-01T11:34:07;9.98;9.78;
74419;PMS5003;62855;50.718;-2.460;2023-06-01T11:37:06;8.17;7.82;
74419;PMS5003;62855;50.718;-2.460;2023-06-01T11:40:06;8.17;7.82;
74419;PMS5003;62855;50.718;-2.460;2023-06-01T11:43:06;9.08;8.80;
74419;PMS5003;62855;50.718;-2.460;2023-06-01T11:46:07;8.17;8.80;
74419;PMS5003;62855;50.718;-2.460;2023-06-01T11:49:06;8.17;8.80;
74419;PMS5003;62855;50.718;-2.460;2023-06-01T11:52:07;8.17;8.80;
74419;PMS5003;62855;50.718;-2.460;2023-06-01T11:55:06;9.08;9.78;
74419;PMS5003;62855;50.718;-2.460;2023-06-01T11:58:06;9.08;9.78;
74419;PMS5003;62855;50.718;-2.460;2023-06-01T12:01:05;9.08;9.78;
74419;PMS5003;62855;50.718;-2.460;2023-06-01T12:04:06;9.08;9.78;
74419;PMS5003;62855;50.718;-2.460;2023-06-01T12:07:06;9.08;9.78;
74419;PMS5003;62855;50.718;-2.460;2023-06-01T12:10:06;9.08;9.78;
74419;PMS5003;62855;50.718;-2.460;2023-06-01T12:13:06;9.08;9.78;
74419;PMS5003;62855;50.718;-2.460;2023-06-01T12:16:06;9.08;9.78;
74419;PMS5003;62855;50.718;-2.460;2023-06-01T12:19:09;9.08;9.78;
74419;PMS5003;62855;50.718;-2.460;2023-06-01T12:22:05;9.08;9.78;
74419;PMS5003;62855;50.718;-2.460;2023-06-01T12:25:06;8.17;8.80;
74419;PMS5003;62855;50.718;-2.460;2023-06-01T12:28:07;7.26;7.82;
74419;PMS5003;62855;50.718;-2.460;2023-06-01T12:31:08;7.26;7.82;
74419;PMS5003;62855;50.718;-2.460;2023-06-01T12:37:12;7.26;7.82;
74419;PMS5003;62855;50.718;-2.460;2023-06-01T12:40:06;7.26;7.82;
74419;PMS5003;62855;50.718;-2.460;2023-06-01T12:43:07;7.26;7.82;
74419;PMS5003;62855;50.718;-2.460;2023-06-01T12:46:06;6.35;6.84;
74419;PMS5003;62855;50.718;-2.460;2023-06-01T12:49:11;6.35;6.84;
74419;PMS5003;62855;50.718;-2.460;2023-06-01T12:52:06;7.26;7.82;
74419;PMS5003;62855;50.718;-2.460;2023-06-01T12:55:06;7.26;7.82;
74419;PMS5003;62855;50.718;-2.460;2023-06-01T12:58:06;6.35;6.84;
74419;PMS5003;62855;50.718;-2.460;2023-06-01T13:01:06;7.26;7.82;
74419;PMS5003;62855;50.718;-2.460;2023-06-01T13:04:06;7.26;7.82;
74419;PMS5003;62855;50.718;-2.460;2023-06-01T13:07:06;6.35;6.84;
74419;PMS5003;62855;50.718;-2.460;2023-06-01T13:10:06;5.45;5.87;
74419;PMS5003;62855;50.718;-2.460;2023-06-01T13:13:06;5.45;5.87;
74419;PMS5003;62855;50.718;-2.460;2023-06-01T13:16:06;5.45;5.87;
74419;PMS5003;62855;50.718;-2.460;2023-06-01T13:19:05;5.45;5.87;
74419;PMS5003;62855;50.718;-2.460;2023-06-01T13:22:06;6.35;6.84;
74419;PMS5003;62855;50.718;-2.460;2023-06-01T13:25:07;6.35;6.84;
74419;PMS5003;62855;50.718;-2.460;2023-06-01T13:28:06;6.35;6.84;
74419;PMS5003;62855;50.718;-2.460;2023-06-01T13:31:06;6.35;6.84;
74419;PMS5003;62855;50.718;-2.460;2023-06-01T13:34:06;7.26;7.82;
74419;PMS5003;62855;50.718;-2.460;2023-06-01T13:37:06;8.17;7.82;
74419;PMS5003;62855;50.718;-2.460;2023-06-01T13:40:06;8.17;7.82;
74419;PMS5003;62855;50.718;-2.460;2023-06-01T13:43:06;7.26;7.82;
74419;PMS5003;62855;50.718;-2.460;2023-06-01T13:46:05;7.26;7.82;
74419;PMS5003;62855;50.718;-2.460;2023-06-01T13:49:06;8.17;7.82;
74419;PMS5003;62855;50.718;-2.460;2023-06-01T13:52:06;8.17;8.80;
74419;PMS5003;62855;50.718;-2.460;2023-06-01T13:55:06;7.26;6.84;
74419;PMS5003;62855;50.718;-2.460;2023-06-01T13:58:05;7.26;6.84;
74419;PMS5003;62855;50.718;-2.460;2023-06-01T14:01:06;8.17;7.82;
74419;PMS5003;62855;50.718;-2.460;2023-06-01T14:04:06;8.17;7.82;
74419;PMS5003;62855;50.718;-2.460;2023-06-01T14:07:06;7.26;7.82;
74419;PMS5003;62855;50.718;-2.460;2023-06-01T14:10:06;8.17;7.82;
74419;PMS5003;62855;50.718;-2.460;2023-06-01T14:13:05;8.17;8.80;
74419;PMS5003;62855;50.718;-2.460;2023-06-01T14:16:06;8.17;8.80;
74419;PMS5003;62855;50.718;-2.460;2023-06-01T14:19:06;8.17;8.80;
74419;PMS5003;62855;50.718;-2.460;2023-06-01T14:22:05;8.17;8.80;
74419;PMS5003;62855;50.718;-2.460;2023-06-01T14:25:06;8.17;8.80;
74419;PMS5003;62855;50.718;-2.460;2023-06-01T14:28:06;9.98;9.78;
74419;PMS5003;62855;50.718;-2.460;2023-06-01T14:31:06;9.98;9.78;
74419;PMS5003;62855;50.718;-2.460;2023-06-01T14:34:06;9.08;9.78;
74419;PMS5003;62855;50.718;-2.460;2023-06-01T14:37:06;9.98;9.78;
74419;PMS5003;62855;50.718;-2.460;2023-06-01T14:40:06;9.08;8.80;
74419;PMS5003;62855;50.718;-2.460;2023-06-01T14:43:06;8.17;8.80;
74419;PMS5003;62855;50.718;-2.460;2023-06-01T14:46:06;9.08;8.80;
74419;PMS5003;62855;50.718;-2.460;2023-06-01T14:49:06;8.17;7.82;
74419;PMS5003;62855;50.718;-2.460;2023-06-01T14:52:06;9.08;8.80;
74419;PMS5003;62855;50.718;-2.460;2023-06-01T14:55:07;9.08;9.78;
74419;PMS5003;62855;50.718;-2.460;2023-06-01T14:58:06;8.17;8.80;
74419;PMS5003;62855;50.718;-2.460;2023-06-01T15:01:06;7.26;7.82;
74419;PMS5003;62855;50.718;-2.460;2023-06-01T15:04:06;7.26;7.82;
74419;PMS5003;62855;50.718;-2.460;2023-06-01T15:07:06;7.26;7.82;
74419;PMS5003;62855;50.718;-2.460;2023-06-01T15:10:06;7.26;7.82;
74419;PMS5003;62855;50.718;-2.460;2023-06-01T15:13:05;7.26;7.82;
74419;PMS5003;62855;50.718;-2.460;2023-06-01T15:16:06;7.26;7.82;
74419;PMS5003;62855;50.718;-2.460;2023-06-01T15:19:06;8.17;8.80;
74419;PMS5003;62855;50.718;-2.460;2023-06-01T15:22:06;7.26;7.82;
74419;PMS5003;62855;50.718;-2.460;2023-06-01T15:25:06;7.26;7.82;
74419;PMS5003;62855;50.718;-2.460;2023-06-01T15:28:06;7.26;7.82;
74419;PMS5003;62855;50.718;-2.460;2023-06-01T15:31:06;7.26;7.82;
74419;PMS5003;62855;50.718;-2.460;2023-06-01T15:34:07;7.26;7.82;
74419;PMS5003;62855;50.718;-2.460;2023-06-01T15:37:06;7.26;7.82;
74419;PMS5003;62855;50.718;-2.460;2023-06-01T15:40:11;8.17;8.80;
74419;PMS5003;62855;50.718;-2.460;2023-06-01T15:43:05;7.26;7.82;
74419;PMS5003;62855;50.718;-2.460;2023-06-01T15:46:06;8.17;8.80;
74419;PMS5003;62855;50.718;-2.460;2023-06-01T15:49:06;8.17;8.80;
74419;PMS5003;62855;50.718;-2.460;2023-06-01T15:52:06;8.17;8.80;
74419;PMS5003;62855;50.718;-2.460;2023-06-01T15:55:06;7.26;7.82;
74419;PMS5003;62855;50.718;-2.460;2023-06-01T15:58:05;7.26;7.82;
74419;PMS5003;62855;50.718;-2.460;2023-06-01T16:01:06;7.26;7.82;
74419;PMS5003;62855;50.718;-2.460;2023-06-01T16:04:06;8.17;7.82;
74419;PMS5003;62855;50.718;-2.460;2023-06-01T16:07:06;7.26;7.82;
74419;PMS5003;62855;50.718;-2.460;2023-06-01T16:10:06;7.26;7.82;
74419;PMS5003;62855;50.718;-2.460;2023-06-01T16:13:05;8.17;7.82;
74419;PMS5003;62855;50.718;-2.460;2023-06-01T16:16:06;8.17;7.82;
74419;PMS5003;62855;50.718;-2.460;2023-06-01T16:19:06;8.17;7.82;
74419;PMS5003;62855;50.718;-2.460;2023-06-01T16:22:05;8.17;6.84;
74419;PMS5003;62855;50.718;-2.460;2023-06-01T16:25:06;8.17;7.82;
74419;PMS5003;62855;50.718;-2.460;2023-06-01T16:28:06;8.17;7.82;
74419;PMS5003;62855;50.718;-2.460;2023-06-01T16:31:06;8.17;7.82;
74419;PMS5003;62855;50.718;-2.460;2023-06-01T16:34:06;8.17;7.82;
74419;PMS5003;62855;50.718;-2.460;2023-06-01T16:37:06;8.17;7.82;
74419;PMS5003;62855;50.718;-2.460;2023-06-01T16:40:06;8.17;7.82;
74419;PMS5003;62855;50.718;-2.460;2023-06-01T16:43:06;7.26;6.84;
74419;PMS5003;62855;50.718;-2.460;2023-06-01T16:46:08;8.17;7.82;
74419;PMS5003;62855;50.718;-2.460;2023-06-01T16:49:06;8.17;8.80;
74419;PMS5003;62855;50.718;-2.460;2023-06-01T16:52:06;7.26;7.82;
74419;PMS5003;62855;50.718;-2.460;2023-06-01T16:55:07;9.08;9.78;
74419;PMS5003;62855;50.718;-2.460;2023-06-01T16:58:06;8.17;8.80;
74419;PMS5003;62855;50.718;-2.460;2023-06-01T17:01:06;9.08;9.78;
74419;PMS5003;62855;50.718;-2.460;2023-06-01T17:04:06;9.08;9.78;
74419;PMS5003;62855;50.718;-2.460;2023-06-01T17:07:06;9.08;9.78;
74419;PMS5003;62855;50.718;-2.460;2023-06-01T17:10:06;8.17;8.80;
74419;PMS5003;62855;50.718;-2.460;2023-06-01T17:13:06;8.17;8.80;
74419;PMS5003;62855;50.718;-2.460;2023-06-01T17:16:06;8.17;8.80;
74419;PMS5003;62855;50.718;-2.460;2023-06-01T17:19:06;8.17;8.80;
74419;PMS5003;62855;50.718;-2.460;2023-06-01T17:22:05;7.26;7.82;
74419;PMS5003;62855;50.718;-2.460;2023-06-01T17:25:06;6.35;6.84;
74419;PMS5003;62855;50.718;-2.460;2023-06-01T17:28:06;7.26;7.82;
74419;PMS5003;62855;50.718;-2.460;2023-06-01T17:31:06;7.26;7.82;
74419;PMS5003;62855;50.718;-2.460;2023-06-01T17:34:05;7.26;7.82;
74419;PMS5003;62855;50.718;-2.460;2023-06-01T17:37:06;8.17;8.80;
74419;PMS5003;62855;50.718;-2.460;2023-06-01T17:40:06;8.17;8.80;
74419;PMS5003;62855;50.718;-2.460;2023-06-01T17:43:06;7.26;7.82;
74419;PMS5003;62855;50.718;-2.460;2023-06-01T17:46:06;7.26;7.82;
74419;PMS5003;62855;50.718;-2.460;2023-06-01T17:49:06;8.17;8.80;
74419;PMS5003;62855;50.718;-2.460;2023-06-01T17:52:06;8.17;8.80;
74419;PMS5003;62855;50.718;-2.460;2023-06-01T17:55:06;7.26;7.82;
74419;PMS5003;62855;50.718;-2.460;2023-06-01T17:58:06;7.26;7.82;
74419;PMS5003;62855;50.718;-2.460;2023-06-01T18:01:06;7.26;7.82;
74419;PMS5003;62855;50.718;-2.460;2023-06-01T18:04:06;7.26;7.82;
74419;PMS5003;62855;50.718;-2.460;2023-06-01T18:07:05;6.35;6.84;
74419;PMS5003;62855;50.718;-2.460;2023-06-01T18:10:06;6.35;6.84;
74419;PMS5003;62855;50.718;-2.460;2023-06-01T18:13:06;8.17;8.80;
74419;PMS5003;62855;50.718;-2.460;2023-06-01T18:16:05;8.17;8.80;
74419;PMS5003;62855;50.718;-2.460;2023-06-01T18:19:06;7.26;7.82;
74419;PMS5003;62855;50.718;-2.460;2023-06-01T18:22:06;7.26;7.82;
74419;PMS5003;62855;50.718;-2.460;2023-06-01T18:25:07;8.17;8.80;
74419;PMS5003;62855;50.718;-2.460;2023-06-01T18:28:06;8.17;7.82;
74419;PMS5003;62855;50.718;-2.460;2023-06-01T18:31:06;9.98;7.82;
74419;PMS5003;62855;50.718;-2.460;2023-06-01T18:34:06;10.89;7.82;
74419;PMS5003;62855;50.718;-2.460;2023-06-01T18:37:06;10.89;5.87;
74419;PMS5003;62855;50.718;-2.460;2023-06-01T18:40:06;10.89;6.84;
74419;PMS5003;62855;50.718;-2.460;2023-06-01T18:43:05;9.98;6.84;
74419;PMS5003;62855;50.718;-2.460;2023-06-01T18:46:06;9.08;6.84;
74419;PMS5003;62855;50.718;-2.460;2023-06-01T18:49:06;9.08;6.84;
74419;PMS5003;62855;50.718;-2.460;2023-06-01T18:52:06;8.17;6.84;
74419;PMS5003;62855;50.718;-2.460;2023-06-01T18:55:07;8.17;6.84;